Time;durP1;ratioP1;P1;durP2;ratioP2;P2;SDS_P1;SDS_P2;PMS_P1;PMS_P2;Temp;Humidity;BMP_temperature;BMP_pressure;BME280_temperature;BME280_humidity;BME280_pressure;Samples;Min_cycle;Max_cycle;Signal;HPM_P1;HPM_P2
2024/01/25 00:01:08;;;;;;;37.63;6.43;;;8.00;99.90;;;;;;5074397;28;20052;-73
2024/01/25 00:03:34;;;;;;;37.60;5.90;;;8.00;99.90;;;;;;5074557;28;20065;-73
2024/01/25 00:06:00;;;;;;;41.10;7.72;;;8.00;99.90;;;;;;5073020;28;20044;-73
2024/01/25 00:08:25;;;;;;;32.17;6.20;;;8.00;99.90;;;;;;5073338;28;20044;-73
2024/01/25 00:10:51;;;;;;;40.75;7.75;;;8.00;99.90;;;;;;5072996;28;20040;-73
2024/01/25 00:13:16;;;;;;;47.05;7.65;;;8.00;99.90;;;;;;5072966;28;20050;-73
2024/01/25 00:15:42;;;;;;;38.22;6.53;;;7.90;99.90;;;;;;5072854;28;20112;-73
2024/01/25 00:18:08;;;;;;;35.90;6.38;;;7.90;99.90;;;;;;5074335;28;20036;-73
2024/01/25 00:20:33;;;;;;;39.47;6.38;;;7.90;99.90;;;;;;5072803;28;20033;-73
2024/01/25 00:22:59;;;;;;;38.72;7.55;;;7.80;99.90;;;;;;5072756;28;20051;-73
2024/01/25 00:25:24;;;;;;;37.78;6.38;;;7.80;99.90;;;;;;5072628;28;20044;-73
2024/01/25 00:27:50;;;;;;;40.55;7.43;;;7.70;99.90;;;;;;5072656;28;20072;-73
2024/01/25 00:30:16;;;;;;;35.75;7.30;;;7.70;99.90;;;;;;5074166;28;20032;-73
2024/01/25 00:32:41;;;;;;;35.70;6.65;;;7.70;99.90;;;;;;5072555;28;20040;-73
2024/01/25 00:35:09;;;;;;;32.85;7.00;;;7.70;99.90;;;;;;5072794;28;20036;-73
2024/01/25 00:37:39;;;;;;;38.63;6.70;;;7.60;99.90;;;;;;5074005;28;20041;-73
2024/01/25 00:40:05;;;;;;;38.83;7.35;;;7.70;99.90;;;;;;5071989;28;20048;-73
2024/01/25 00:42:35;;;;;;;38.20;6.88;;;7.60;99.90;;;;;;5073937;28;20106;-73
2024/01/25 00:45:01;;;;;;;43.92;7.28;;;7.60;99.90;;;;;;5072273;28;20139;-72
2024/01/25 00:47:27;;;;;;;40.55;7.75;;;7.60;99.90;;;;;;5072363;28;20537;-72
2024/01/25 00:49:53;;;;;;;40.33;6.88;;;7.50;99.90;;;;;;5072269;28;20075;-72
2024/01/25 00:52:19;;;;;;;40.38;7.28;;;7.60;99.90;;;;;;5072248;28;20063;-73
2024/01/25 00:54:44;;;;;;;44.03;7.05;;;7.60;99.90;;;;;;5072110;28;20048;-73
2024/01/25 00:57:11;;;;;;;41.20;7.07;;;7.50;99.90;;;;;;5073701;28;20043;-73
2024/01/25 00:59:36;;;;;;;42.60;7.10;;;7.50;99.90;;;;;;5073647;28;20044;-73
2024/01/25 01:02:05;;;;;;;37.00;6.18;;;7.50;99.90;;;;;;5072089;28;20043;-73
2024/01/25 01:04:31;;;;;;;39.08;6.85;;;7.40;99.90;;;;;;5073383;28;20040;-73
2024/01/25 01:06:57;;;;;;;36.13;6.55;;;7.40;99.90;;;;;;5071983;28;20034;-73
2024/01/25 01:09:22;;;;;;;33.45;6.85;;;7.40;99.90;;;;;;5071998;28;20037;-73
2024/01/25 01:11:50;;;;;;;39.13;8.07;;;7.30;99.90;;;;;;5072253;28;20101;-73
2024/01/25 01:14:15;;;;;;;39.70;7.45;;;7.30;99.90;;;;;;5073418;28;20126;-73
2024/01/25 01:16:41;;;;;;;43.72;6.82;;;7.20;99.90;;;;;;5073348;28;20076;-73
2024/01/25 01:19:07;;;;;;;40.50;6.70;;;7.20;99.90;;;;;;5072139;28;20036;-73
2024/01/25 01:21:34;;;;;;;42.42;7.32;;;7.20;99.90;;;;;;5071821;28;20100;-73
2024/01/25 01:24:00;;;;;;;37.15;7.70;;;7.20;99.90;;;;;;5071708;28;20405;-73
2024/01/25 01:26:25;;;;;;;41.20;7.95;;;7.20;99.90;;;;;;5071733;28;20033;-73
2024/01/25 01:28:51;;;;;;;40.17;7.20;;;7.20;99.90;;;;;;5072340;28;20120;-73
2024/01/25 01:31:17;;;;;;;40.30;7.05;;;7.10;99.90;;;;;;5071751;28;20041;-73
2024/01/25 01:33:42;;;;;;;44.40;7.57;;;7.10;99.90;;;;;;5071706;28;20413;-73
2024/01/25 01:36:08;;;;;;;43.97;8.02;;;7.10;99.90;;;;;;5073155;28;20090;-73
2024/01/25 01:38:33;;;;;;;40.60;7.28;;;7.10;99.90;;;;;;5073211;28;20043;-73
2024/01/25 01:40:59;;;;;;;47.97;7.10;;;7.00;99.90;;;;;;5071681;28;20513;-73
2024/01/25 01:43:24;;;;;;;35.85;6.90;;;7.00;99.90;;;;;;5071789;28;20044;-73
2024/01/25 01:45:50;;;;;;;42.22;7.80;;;6.90;99.90;;;;;;5071473;28;20119;-73
2024/01/25 01:48:17;;;;;;;41.20;6.40;;;6.90;99.90;;;;;;5071639;28;20040;-73
2024/01/25 01:50:43;;;;;;;47.63;7.35;;;6.90;99.90;;;;;;5071561;28;20045;-73
2024/01/25 01:53:10;;;;;;;37.42;6.95;;;6.90;99.90;;;;;;5074531;28;20044;-73
2024/01/25 01:55:36;;;;;;;42.00;7.20;;;6.90;99.90;;;;;;5077072;28;20040;-73
2024/01/25 01:58:02;;;;;;;43.35;8.18;;;6.80;99.90;;;;;;5075560;28;20051;-73
2024/01/25 02:00:30;;;;;;;43.63;7.25;;;6.80;99.90;;;;;;5077050;28;20052;-73
2024/01/25 02:02:57;;;;;;;46.35;7.18;;;6.80;99.90;;;;;;5075507;28;20090;-73
2024/01/25 02:05:23;;;;;;;45.15;7.10;;;6.80;99.90;;;;;;5075316;28;20048;-73
2024/01/25 02:07:49;;;;;;;42.08;6.93;;;6.70;99.90;;;;;;5076931;28;20385;-73
2024/01/25 02:10:15;;;;;;;44.15;7.50;;;6.70;99.90;;;;;;5076875;28;20038;-73
2024/01/25 02:12:41;;;;;;;36.00;6.75;;;6.70;99.90;;;;;;5075259;28;20044;-73
2024/01/25 02:15:07;;;;;;;46.15;7.53;;;6.70;99.90;;;;;;5075150;28;20036;-73
2024/01/25 02:17:33;;;;;;;41.30;7.95;;;6.60;99.90;;;;;;5075202;28;20082;-73
2024/01/25 02:19:58;;;;;;;37.75;7.32;;;6.60;99.90;;;;;;5076667;28;20079;-73
2024/01/25 02:22:24;;;;;;;48.17;7.15;;;6.60;99.90;;;;;;5075074;28;20037;-73
2024/01/25 02:24:49;;;;;;;40.95;7.43;;;6.60;99.90;;;;;;5074901;28;20090;-73
2024/01/25 02:27:15;;;;;;;40.10;6.88;;;6.60;99.90;;;;;;5058414;28;20054;-73
2024/01/25 02:29:41;;;;;;;33.35;6.70;;;6.50;99.90;;;;;;5076453;28;20040;-73
2024/01/25 02:32:06;;;;;;;43.15;7.80;;;6.50;99.90;;;;;;5076146;28;20035;-73
2024/01/25 02:34:32;;;;;;;42.95;7.07;;;6.50;99.90;;;;;;5074804;28;20079;-73
2024/01/25 02:36:57;;;;;;;32.75;6.70;;;6.50;99.90;;;;;;5074823;28;20044;-73
2024/01/25 02:39:23;;;;;;;45.22;7.47;;;6.50;99.90;;;;;;5075021;28;20041;-73
2024/01/25 02:41:48;;;;;;;46.83;6.47;;;6.40;99.90;;;;;;5074761;28;20489;-73
2024/01/25 02:44:15;;;;;;;43.55;7.38;;;6.40;99.90;;;;;;5075488;28;20043;-73
2024/01/25 02:46:40;;;;;;;48.58;7.78;;;6.40;99.90;;;;;;5073413;28;20040;-73
2024/01/25 02:49:06;;;;;;;42.08;7.03;;;6.40;99.90;;;;;;5074941;28;20041;-73
2024/01/25 02:51:31;;;;;;;45.65;7.00;;;6.30;99.90;;;;;;5073388;28;20038;-73
2024/01/25 02:53:57;;;;;;;41.47;6.72;;;6.40;99.90;;;;;;5073383;28;20070;-73
2024/01/25 02:56:22;;;;;;;38.65;7.28;;;6.30;99.90;;;;;;5073244;28;20041;-73
2024/01/25 02:58:48;;;;;;;42.83;6.90;;;6.30;99.90;;;;;;5073222;28;20054;-73
2024/01/25 03:01:14;;;;;;;39.42;6.80;;;6.30;99.90;;;;;;5056574;28;20037;-73
2024/01/25 03:03:39;;;;;;;38.28;7.05;;;6.30;99.90;;;;;;5073957;28;20040;-73
2024/01/25 03:06:06;;;;;;;42.20;8.52;;;6.30;99.90;;;;;;5073360;28;20071;-73
2024/01/25 03:08:32;;;;;;;40.92;7.18;;;6.30;99.90;;;;;;5073140;28;20123;-73
2024/01/25 03:10:57;;;;;;;42.65;7.40;;;6.20;99.90;;;;;;5073358;28;20119;-73
2024/01/25 03:13:23;;;;;;;52.88;7.68;;;6.30;99.90;;;;;;5074598;28;20033;-73
2024/01/25 03:15:48;;;;;;;44.75;7.35;;;6.20;99.90;;;;;;5074169;28;20044;-73
2024/01/25 03:18:14;;;;;;;44.83;7.03;;;6.20;99.90;;;;;;5074523;28;20058;-73
2024/01/25 03:20:40;;;;;;;49.78;7.63;;;6.20;99.90;;;;;;5073192;28;20409;-73
2024/01/25 03:23:05;;;;;;;44.42;7.70;;;6.20;99.90;;;;;;5072931;28;20497;-73
2024/01/25 03:25:31;;;;;;;40.55;7.30;;;6.20;99.90;;;;;;5073914;28;20097;-73
2024/01/25 03:27:57;;;;;;;48.60;7.15;;;6.20;99.90;;;;;;5072820;28;20044;-73
2024/01/25 03:30:23;;;;;;;38.83;6.80;;;6.20;99.90;;;;;;5072772;28;20141;-73
2024/01/25 03:32:48;;;;;;;39.25;7.05;;;6.10;99.90;;;;;;5073964;28;20052;-73
2024/01/25 03:35:14;;;;;;;46.67;6.65;;;6.10;99.90;;;;;;5073877;28;20080;-72
2024/01/25 03:37:39;;;;;;;46.90;7.60;;;6.10;99.90;;;;;;5072679;28;20045;-72
2024/01/25 03:40:06;;;;;;;45.00;7.78;;;6.10;99.90;;;;;;5074148;28;20090;-72
2024/01/25 03:42:31;;;;;;;43.30;7.45;;;6.10;99.90;;;;;;5072799;28;20040;-72
2024/01/25 03:44:57;;;;;;;46.60;7.30;;;6.10;99.90;;;;;;5014138;28;1678646;-72
2024/01/25 03:47:23;;;;;;;38.67;6.70;;;6.10;99.90;;;;;;5073528;28;20512;-73
2024/01/25 03:49:48;;;;;;;40.83;7.22;;;6.10;99.90;;;;;;5073715;28;20119;-73
2024/01/25 03:52:14;;;;;;;40.47;6.15;;;6.00;99.90;;;;;;5073432;28;20483;-73
2024/01/25 03:54:40;;;;;;;45.63;7.20;;;6.00;99.90;;;;;;5073285;28;20043;-72
2024/01/25 03:57:05;;;;;;;38.00;6.68;;;6.00;99.90;;;;;;5073566;28;20043;-72
2024/01/25 03:59:31;;;;;;;46.25;7.55;;;6.00;99.90;;;;;;5073280;28;20595;-73
2024/01/25 04:01:56;;;;;;;49.53;6.93;;;6.00;99.90;;;;;;5073498;28;20127;-73
2024/01/25 04:04:22;;;;;;;43.03;7.07;;;6.00;99.90;;;;;;5073273;28;20409;-73
2024/01/25 04:06:48;;;;;;;47.83;7.70;;;6.00;99.90;;;;;;5073293;28;20512;-73
2024/01/25 04:09:17;;;;;;;42.80;6.85;;;6.00;99.90;;;;;;5073361;28;20036;-73
2024/01/25 04:11:42;;;;;;;41.67;5.95;;;6.00;99.90;;;;;;5073043;28;20037;-73
2024/01/25 04:14:08;;;;;;;48.75;7.55;;;5.90;99.90;;;;;;5074033;28;20040;-73
2024/01/25 04:16:33;;;;;;;36.67;6.80;;;5.90;99.90;;;;;;5072545;28;20086;-73
2024/01/25 04:18:59;;;;;;;46.63;7.80;;;5.90;99.90;;;;;;5072886;28;20041;-73
2024/01/25 04:21:26;;;;;;;51.20;7.47;;;5.90;99.90;;;;;;5073101;28;20033;-73
2024/01/25 04:23:51;;;;;;;40.65;7.10;;;5.90;99.90;;;;;;5073031;28;20048;-73
2024/01/25 04:26:17;;;;;;;49.90;8.02;;;5.90;99.90;;;;;;5072973;28;20036;-73
2024/01/25 04:28:42;;;;;;;40.42;6.45;;;5.90;99.90;;;;;;5074247;28;20507;-74
2024/01/25 04:31:08;;;;;;;38.00;6.80;;;5.80;99.90;;;;;;5072951;28;20044;-73
2024/01/25 04:33:34;;;;;;;43.63;6.55;;;5.90;99.90;;;;;;5072899;28;20413;-73
2024/01/25 04:36:00;;;;;;;41.28;7.15;;;5.80;99.90;;;;;;5056099;28;20036;-73
2024/01/25 04:38:26;;;;;;;49.05;7.65;;;5.80;99.90;;;;;;5074035;28;20040;-74
2024/01/25 04:40:51;;;;;;;39.85;6.57;;;5.80;99.90;;;;;;5072475;28;20513;-74
2024/01/25 04:43:17;;;;;;;35.97;6.43;;;5.80;99.90;;;;;;5073957;28;20043;-73
2024/01/25 04:45:42;;;;;;;37.15;6.82;;;5.80;99.90;;;;;;5073420;28;20044;-73
2024/01/25 04:48:08;;;;;;;39.65;7.10;;;5.80;99.90;;;;;;5072575;28;20052;-73
2024/01/25 04:50:34;;;;;;;47.75;7.70;;;5.80;99.90;;;;;;5072323;28;20383;-73
2024/01/25 04:53:02;;;;;;;45.25;8.27;;;5.80;99.90;;;;;;5073747;28;20032;-73
2024/01/25 04:55:28;;;;;;;48.08;7.70;;;5.80;99.90;;;;;;5072413;28;20107;-73
2024/01/25 04:57:53;;;;;;;42.63;7.20;;;5.80;99.90;;;;;;5072159;28;20052;-72
2024/01/25 05:00:21;;;;;;;39.53;6.80;;;5.70;99.90;;;;;;5072174;28;20036;-73
2024/01/25 05:02:47;;;;;;;44.28;6.90;;;5.70;99.90;;;;;;5072152;28;20048;-73
2024/01/25 05:05:13;;;;;;;51.05;7.22;;;5.70;99.90;;;;;;5071978;28;20463;-73
2024/01/25 05:07:39;;;;;;;52.22;7.18;;;5.70;99.90;;;;;;5055396;28;20032;-73
2024/01/25 05:10:05;;;;;;;46.72;7.53;;;5.70;99.90;;;;;;5072023;28;20040;-73
2024/01/25 05:12:31;;;;;;;41.25;7.05;;;5.60;99.90;;;;;;5073516;28;20041;-73
2024/01/25 05:14:56;;;;;;;50.05;6.70;;;5.60;99.90;;;;;;5071887;28;20040;-73
2024/01/25 05:17:22;;;;;;;40.53;6.55;;;5.60;99.90;;;;;;5071927;28;20044;-73
2024/01/25 05:19:47;;;;;;;44.10;6.80;;;5.60;99.90;;;;;;5073421;28;20071;-73
2024/01/25 05:22:13;;;;;;;38.17;6.68;;;5.50;99.90;;;;;;5071821;28;20044;-72
2024/01/25 05:24:39;;;;;;;41.38;7.07;;;5.50;99.90;;;;;;5071693;28;20128;-72
2024/01/25 05:27:04;;;;;;;45.08;6.90;;;5.50;99.90;;;;;;5071662;28;20038;-72
2024/01/25 05:29:30;;;;;;;50.60;8.02;;;5.50;99.90;;;;;;5073316;28;20120;-72
2024/01/25 05:31:56;;;;;;;45.33;8.30;;;5.30;99.90;;;;;;5071764;28;20119;-72
2024/01/25 05:34:21;;;;;;;39.88;7.53;;;5.30;99.90;;;;;;5073271;28;20041;-72
2024/01/25 05:36:47;;;;;;;45.95;7.28;;;5.30;99.90;;;;;;5071914;28;20041;-72
2024/01/25 05:39:13;;;;;;;41.25;7.95;;;5.30;99.90;;;;;;5055003;28;20477;-73
2024/01/25 05:41:39;;;;;;;43.70;7.25;;;5.20;99.90;;;;;;5071675;28;20105;-73
2024/01/25 05:44:05;;;;;;;48.45;7.78;;;5.30;99.90;;;;;;5072901;28;20102;-73
2024/01/25 05:46:30;;;;;;;45.28;7.97;;;5.30;99.90;;;;;;5072738;28;20079;-72
2024/01/25 05:48:56;;;;;;;53.08;7.63;;;5.20;99.90;;;;;;5073129;28;20033;-72
2024/01/25 05:51:22;;;;;;;50.80;7.30;;;5.20;99.90;;;;;;5071831;28;20029;-73
2024/01/25 05:53:47;;;;;;;51.03;7.55;;;5.20;99.90;;;;;;5071575;28;20452;-73
2024/01/25 05:56:13;;;;;;;48.92;7.78;;;5.20;99.90;;;;;;5071715;28;20043;-73
2024/01/25 05:58:38;;;;;;;40.40;6.75;;;5.10;99.90;;;;;;5071495;28;20082;-73
2024/01/25 06:01:04;;;;;;;50.78;8.52;;;5.10;99.90;;;;;;5072993;28;20072;-73
2024/01/25 06:03:30;;;;;;;46.95;7.72;;;5.10;99.90;;;;;;5071475;28;20111;-73
2024/01/25 06:05:55;;;;;;;49.67;7.28;;;5.10;99.90;;;;;;5071364;28;20036;-73
2024/01/25 06:08:21;;;;;;;47.00;6.60;;;5.10;99.90;;;;;;5072961;28;20548;-73
2024/01/25 06:10:47;;;;;;;59.22;8.43;;;5.10;99.90;;;;;;5071400;28;20069;-73
2024/01/25 06:13:13;;;;;;;47.25;6.53;;;5.20;99.90;;;;;;5071382;28;20127;-73
2024/01/25 06:15:39;;;;;;;44.60;7.13;;;5.10;99.90;;;;;;5071338;28;20083;-73
2024/01/25 06:18:04;;;;;;;43.10;6.72;;;5.10;99.90;;;;;;5072889;28;20083;-73
2024/01/25 06:20:30;;;;;;;60.45;8.27;;;5.10;99.90;;;;;;5071305;28;20417;-73
2024/01/25 06:22:56;;;;;;;49.08;7.47;;;5.00;99.90;;;;;;5071570;28;20044;-73
2024/01/25 06:25:22;;;;;;;42.22;7.40;;;5.00;99.90;;;;;;5071122;28;20421;-73
2024/01/25 06:27:48;;;;;;;53.38;8.93;;;5.00;99.90;;;;;;5071444;28;20390;-73
2024/01/25 06:30:14;;;;;;;59.08;7.90;;;5.00;99.90;;;;;;5054555;28;20043;-73
2024/01/25 06:32:40;;;;;;;58.83;7.63;;;5.00;99.90;;;;;;5071558;28;20037;-73
2024/01/25 06:35:06;;;;;;;46.05;7.13;;;5.10;99.90;;;;;;5072585;28;20068;-73
2024/01/25 06:37:32;;;;;;;51.97;7.28;;;5.00;99.90;;;;;;5072899;28;20044;-73
2024/01/25 06:39:57;;;;;;;55.17;8.90;;;5.00;99.90;;;;;;5076306;28;20396;-73
2024/01/25 06:42:23;;;;;;;47.22;7.32;;;5.00;99.90;;;;;;5075038;28;20177;-73
2024/01/25 06:44:48;;;;;;;46.53;7.03;;;4.90;99.90;;;;;;5074457;28;20444;-72
2024/01/25 06:47:14;;;;;;;50.55;8.75;;;4.80;99.90;;;;;;5074942;28;20047;-73
2024/01/25 06:49:39;;;;;;;45.53;7.45;;;4.80;99.90;;;;;;5076161;28;20514;-73
2024/01/25 06:52:05;;;;;;;39.10;6.28;;;4.80;99.90;;;;;;5074591;28;20041;-73
2024/01/25 06:54:31;;;;;;;48.17;7.28;;;4.80;99.90;;;;;;5074726;28;20069;-73
2024/01/25 06:56:57;;;;;;;58.20;7.28;;;4.80;99.90;;;;;;5074510;28;20536;-73
2024/01/25 06:59:23;;;;;;;51.17;7.30;;;4.70;99.90;;;;;;5074761;28;20047;-73
2024/01/25 07:01:49;;;;;;;52.28;7.30;;;4.80;99.90;;;;;;5074382;28;20045;-73
2024/01/25 07:04:15;;;;;;;47.90;7.43;;;4.70;99.90;;;;;;5074321;28;20114;-73
2024/01/25 07:06:40;;;;;;;47.10;7.43;;;4.70;99.90;;;;;;5074254;28;20037;-73
2024/01/25 07:09:06;;;;;;;54.55;7.55;;;4.60;99.90;;;;;;5074242;28;20043;-73
2024/01/25 07:11:32;;;;;;;54.22;8.85;;;4.70;99.90;;;;;;5075734;28;20041;-73
2024/01/25 07:13:57;;;;;;;55.47;7.18;;;4.70;99.90;;;;;;5074191;28;20029;-73
2024/01/25 07:16:23;;;;;;;53.40;8.52;;;4.70;99.90;;;;;;5074111;28;20036;-73
2024/01/25 07:18:49;;;;;;;55.40;7.93;;;4.60;99.90;;;;;;5074323;28;20048;-73
2024/01/25 07:21:15;;;;;;;53.25;7.75;;;4.60;99.90;;;;;;5075610;28;20037;-73
2024/01/25 07:23:41;;;;;;;58.63;8.52;;;4.70;99.90;;;;;;5075461;28;20032;-73
2024/01/25 07:26:06;;;;;;;45.70;8.32;;;4.70;99.90;;;;;;5074163;28;20118;-73
2024/01/25 07:28:32;;;;;;;43.53;6.90;;;4.70;99.90;;;;;;5073924;28;20520;-72
2024/01/25 07:30:57;;;;;;;50.15;7.47;;;4.60;99.90;;;;;;5075094;28;20039;-72
2024/01/25 07:33:23;;;;;;;52.78;7.57;;;4.60;99.90;;;;;;5073862;28;20072;-72
2024/01/25 07:35:49;;;;;;;62.70;8.40;;;4.60;99.90;;;;;;5073779;28;20048;-72
2024/01/25 07:38:15;;;;;;;49.45;7.15;;;4.70;99.90;;;;;;5073798;28;20044;-73
2024/01/25 07:40:41;;;;;;;47.10;7.43;;;4.70;99.90;;;;;;5075264;28;20115;-72
2024/01/25 07:43:06;;;;;;;52.13;7.55;;;4.60;99.90;;;;;;5057045;28;20489;-73
2024/01/25 07:45:32;;;;;;;47.28;7.45;;;4.60;99.90;;;;;;5073507;28;20068;-72
2024/01/25 07:47:58;;;;;;;56.00;7.70;;;4.70;99.90;;;;;;5075125;28;20500;-73
2024/01/25 07:50:24;;;;;;;58.70;7.85;;;4.60;99.90;;;;;;5072359;28;20040;-73
2024/01/25 07:52:50;;;;;;;48.42;7.55;;;4.70;99.90;;;;;;5073778;28;20072;-73
2024/01/25 07:55:16;;;;;;;60.67;8.55;;;4.70;99.90;;;;;;5074933;28;20564;-73
2024/01/25 07:57:42;;;;;;;51.53;8.25;;;4.70;99.90;;;;;;5073704;28;20041;-73
2024/01/25 08:00:08;;;;;;;54.47;6.80;;;4.70;99.90;;;;;;5073409;28;20512;-73
2024/01/25 08:02:35;;;;;;;51.35;7.85;;;4.70;99.90;;;;;;5073604;28;20119;-73
2024/01/25 08:05:01;;;;;;;55.67;8.80;;;4.80;99.90;;;;;;5074649;28;20382;-73
2024/01/25 08:07:28;;;;;;;51.47;7.13;;;4.80;99.90;;;;;;5073230;28;20079;-73
2024/01/25 08:09:57;;;;;;;53.05;8.57;;;4.90;99.90;;;;;;5073439;28;20050;-72
2024/01/25 08:12:24;;;;;;;48.25;7.97;;;4.90;99.90;;;;;;5073388;28;20067;-72
2024/01/25 08:14:49;;;;;;;60.88;8.65;;;4.90;99.90;;;;;;5074460;28;20064;-72
2024/01/25 08:17:15;;;;;;;47.80;9.07;;;5.00;99.90;;;;;;5056365;28;20456;-72
2024/01/25 08:19:41;;;;;;;62.17;8.82;;;5.10;99.90;;;;;;5072944;28;20044;-72
2024/01/25 08:22:06;;;;;;;50.30;7.75;;;5.10;99.90;;;;;;5072959;28;20132;-74
2024/01/25 08:24:32;;;;;;;51.22;8.13;;;5.10;99.90;;;;;;5072662;28;20033;-72
2024/01/25 08:26:57;;;;;;;57.17;8.18;;;5.20;99.90;;;;;;5074362;28;20040;-73
2024/01/25 08:29:23;;;;;;;53.63;7.25;;;5.20;99.90;;;;;;5074290;28;20033;-73
2024/01/25 08:31:48;;;;;;;59.00;8.80;;;5.20;99.90;;;;;;5056068;28;20115;-73
2024/01/25 08:34:14;;;;;;;52.72;8.13;;;5.20;99.90;;;;;;5074184;28;20072;-73
2024/01/25 08:36:40;;;;;;;50.63;6.85;;;5.30;99.90;;;;;;5072794;28;20035;-73
2024/01/25 08:39:06;;;;;;;47.75;8.10;;;5.30;99.90;;;;;;5074088;28;20485;-73
2024/01/25 08:41:31;;;;;;;55.90;7.30;;;5.30;99.90;;;;;;5072556;28;20047;-73
2024/01/25 08:43:57;;;;;;;46.75;7.70;;;5.40;99.90;;;;;;5072238;28;20105;-73
2024/01/25 08:46:22;;;;;;;45.42;7.88;;;5.40;99.90;;;;;;5055736;28;20045;-73
2024/01/25 08:48:48;;;;;;;52.83;8.15;;;5.50;99.90;;;;;;5072610;28;20085;-73
2024/01/25 08:51:14;;;;;;;43.00;7.78;;;5.50;99.90;;;;;;5073601;28;20500;-73
2024/01/25 08:53:39;;;;;;;46.97;7.45;;;5.50;99.90;;;;;;5073458;28;20040;-74
2024/01/25 08:56:05;;;;;;;41.45;7.45;;;5.50;99.90;;;;;;5073722;28;20040;-73
2024/01/25 08:58:31;;;;;;;45.60;7.72;;;5.60;99.90;;;;;;5072477;28;20049;-72
2024/01/25 09:00:57;;;;;;;47.15;7.65;;;5.60;99.90;;;;;;5073200;28;20043;-72
2024/01/25 09:03:22;;;;;;;49.00;8.70;;;5.70;99.90;;;;;;5072280;28;20132;-73
2024/01/25 09:05:48;;;;;;;53.42;7.72;;;5.60;99.90;;;;;;5072325;28;20040;-72
2024/01/25 09:08:14;;;;;;;60.55;8.48;;;5.70;99.90;;;;;;5072275;28;20039;-72
2024/01/25 09:10:44;;;;;;;47.33;7.45;;;5.70;99.90;;;;;;5072455;28;20032;-73
2024/01/25 09:13:10;;;;;;;55.00;7.63;;;5.70;99.90;;;;;;5072028;28;20040;-73
2024/01/25 09:15:36;;;;;;;50.00;8.38;;;5.70;99.90;;;;;;5073482;28;20036;-73
2024/01/25 09:18:02;;;;;;;56.50;8.95;;;5.60;99.90;;;;;;5073237;28;20509;-73
2024/01/25 09:20:27;;;;;;;45.25;8.30;;;5.60;99.90;;;;;;5073485;28;20079;-73
2024/01/25 09:22:55;;;;;;;51.70;8.75;;;5.60;99.90;;;;;;5071933;28;20033;-73
2024/01/25 09:25:23;;;;;;;46.05;7.03;;;5.60;99.90;;;;;;5071710;28;20485;-73
2024/01/25 09:27:49;;;;;;;44.10;8.07;;;5.60;99.90;;;;;;5071879;28;20119;-72
2024/01/25 09:30:15;;;;;;;54.30;8.38;;;5.60;99.90;;;;;;5073383;28;20094;-73
2024/01/25 09:32:40;;;;;;;60.25;9.45;;;5.60;99.90;;;;;;5071834;28;20044;-73
2024/01/25 09:35:07;;;;;;;51.80;8.80;;;5.70;99.90;;;;;;5071703;28;20127;-73
2024/01/25 09:37:33;;;;;;;53.92;8.73;;;5.70;99.90;;;;;;5072124;28;20116;-73
2024/01/25 09:39:58;;;;;;;42.53;7.72;;;5.70;99.90;;;;;;5071792;28;20094;-73
2024/01/25 09:42:24;;;;;;;59.30;9.35;;;5.70;99.90;;;;;;5071747;28;20043;-73
2024/01/25 09:44:52;;;;;;;47.53;8.80;;;5.80;99.90;;;;;;5072749;28;20051;-72
2024/01/25 09:47:20;;;;;;;50.80;7.60;;;5.80;99.90;;;;;;5073210;28;20108;-73
2024/01/25 09:49:46;;;;;;;48.38;7.82;;;5.80;99.90;;;;;;5071697;28;20504;-73
2024/01/25 09:52:12;;;;;;;46.50;9.10;;;5.80;99.90;;;;;;5073190;28;20040;-73
2024/01/25 09:54:39;;;;;;;51.45;10.43;;;5.90;99.90;;;;;;5073060;28;20064;-72
2024/01/25 09:57:17;;;;;;;54.25;9.60;;;5.90;99.90;;;;;;5073146;28;20130;-72
2024/01/25 09:59:43;;;;;;;55.42;9.68;;;5.90;99.90;;;;;;5073094;28;20040;-73
2024/01/25 10:02:10;;;;;;;49.22;9.63;;;5.90;99.90;;;;;;5073103;28;20040;-72
2024/01/25 10:04:36;;;;;;;57.40;10.25;;;5.90;99.90;;;;;;5071390;28;20408;-72
2024/01/25 10:07:01;;;;;;;49.78;11.20;;;5.90;99.90;;;;;;5073010;28;20119;-72
2024/01/25 10:09:27;;;;;;;53.95;10.23;;;6.00;99.90;;;;;;5071474;28;20112;-72
2024/01/25 10:11:52;;;;;;;47.05;10.02;;;6.00;99.90;;;;;;5072985;28;20037;-72
2024/01/25 10:14:18;;;;;;;48.20;9.57;;;6.10;99.90;;;;;;5074554;28;20044;-73
2024/01/25 10:16:45;;;;;;;47.15;8.73;;;6.10;99.90;;;;;;5075458;28;20068;-73
2024/01/25 10:19:12;;;;;;;51.88;10.45;;;6.20;99.90;;;;;;5076758;28;20032;-73
2024/01/25 10:21:38;;;;;;;55.10;10.13;;;6.20;99.90;;;;;;5075435;28;20036;-73
2024/01/25 10:24:06;;;;;;;50.97;9.00;;;6.20;99.90;;;;;;5075099;28;20052;-72
2024/01/25 10:26:31;;;;;;;59.53;10.40;;;6.30;99.90;;;;;;5076254;28;20508;-72
2024/01/25 10:28:58;;;;;;;52.55;9.57;;;6.30;99.90;;;;;;5075378;28;20036;-72
2024/01/25 10:31:25;;;;;;;47.00;9.45;;;6.40;99.90;;;;;;5075316;28;20086;-72
2024/01/25 10:33:53;;;;;;;49.22;8.95;;;6.40;99.90;;;;;;5075241;28;20036;-73
2024/01/25 10:36:21;;;;;;;46.00;9.05;;;6.50;99.90;;;;;;5058259;28;20032;-73
2024/01/25 10:38:48;;;;;;;47.03;8.43;;;6.50;99.90;;;;;;5076466;28;20089;-73
2024/01/25 10:41:15;;;;;;;46.78;8.48;;;6.60;99.90;;;;;;5074832;28;20068;-73
2024/01/25 10:43:41;;;;;;;52.33;9.60;;;6.70;99.90;;;;;;5074693;28;20037;-73
2024/01/25 10:46:08;;;;;;;48.65;8.75;;;6.80;99.90;;;;;;5074660;28;20094;-73
2024/01/25 10:48:34;;;;;;;47.42;9.73;;;6.80;99.90;;;;;;5074721;28;20120;-73
2024/01/25 10:51:02;;;;;;;54.35;9.55;;;6.90;99.90;;;;;;5074703;28;20119;-73
2024/01/25 10:53:32;;;;;;;60.30;8.43;;;6.90;99.90;;;;;;5076166;28;20032;-73
2024/01/25 10:55:59;;;;;;;47.88;8.77;;;7.00;99.90;;;;;;5074529;28;20127;-73
2024/01/25 10:58:29;;;;;;;48.20;9.60;;;7.10;99.90;;;;;;5076078;28;20044;-73
2024/01/25 11:00:55;;;;;;;48.15;9.68;;;7.20;99.90;;;;;;5074528;28;20044;-73
2024/01/25 11:03:30;;;;;;;45.85;9.43;;;7.30;99.90;;;;;;5074555;28;20119;-73
2024/01/25 11:06:07;;;;;;;38.85;9.32;;;7.40;99.90;;;;;;5074332;28;20098;-73
2024/01/25 11:08:32;;;;;;;50.08;9.75;;;7.50;99.90;;;;;;5074402;28;20036;-73
2024/01/25 11:10:58;;;;;;;48.83;9.13;;;7.50;99.90;;;;;;5074394;28;20106;-73
2024/01/25 11:13:26;;;;;;;47.95;10.00;;;7.70;99.90;;;;;;5075835;28;20040;-73
2024/01/25 11:15:52;;;;;;;45.20;8.60;;;7.90;99.90;;;;;;5075671;28;20041;-73
2024/01/25 11:18:18;;;;;;;50.10;10.40;;;8.10;99.90;;;;;;5075746;28;20124;-73
2024/01/25 11:20:47;;;;;;;40.10;8.30;;;8.20;99.90;;;;;;5074169;28;20051;-74
2024/01/25 11:23:16;;;;;;;44.65;9.90;;;8.40;99.90;;;;;;5074391;28;20110;-74
2024/01/25 11:25:45;;;;;;;51.08;8.95;;;8.60;99.90;;;;;;5056990;28;20037;-73
2024/01/25 11:28:13;;;;;;;40.22;8.48;;;8.80;99.90;;;;;;5074011;28;20041;-73
2024/01/25 11:30:39;;;;;;;53.58;9.32;;;8.80;99.90;;;;;;5074257;28;20040;-73
2024/01/25 11:33:06;;;;;;;43.72;7.78;;;8.80;99.90;;;;;;5075435;28;20170;-73
2024/01/25 11:35:32;;;;;;;47.05;9.45;;;8.70;99.90;;;;;;5075326;28;20096;-73
2024/01/25 11:37:57;;;;;;;39.00;8.48;;;8.60;99.90;;;;;;5075402;28;20552;-73
2024/01/25 11:40:23;;;;;;;41.53;8.75;;;8.50;99.90;;;;;;5073811;28;20036;-73
2024/01/25 11:42:50;;;;;;;50.00;9.75;;;8.40;99.90;;;;;;5073737;28;20507;-73
2024/01/25 11:45:16;;;;;;;47.65;9.82;;;8.40;99.90;;;;;;5056896;28;20040;-73
2024/01/25 11:47:44;;;;;;;46.95;9.88;;;8.40;99.90;;;;;;5073632;28;20048;-73
2024/01/25 11:50:11;;;;;;;53.08;10.43;;;8.40;99.90;;;;;;5073606;28;20094;-73
2024/01/25 11:52:38;;;;;;;51.42;9.20;;;8.50;99.90;;;;;;5073520;28;20382;-74
2024/01/25 11:55:05;;;;;;;42.70;9.93;;;8.40;99.90;;;;;;5073479;28;20599;-73
2024/01/25 11:57:34;;;;;;;46.67;9.27;;;8.30;99.90;;;;;;5073436;28;20119;-73
2024/01/25 12:00:00;;;;;;;52.60;8.90;;;8.30;99.90;;;;;;5073386;28;20520;-73
2024/01/25 12:02:26;;;;;;;41.45;10.35;;;8.20;99.90;;;;;;5073385;28;20127;-74
2024/01/25 12:04:53;;;;;;;44.25;9.25;;;8.20;99.90;;;;;;5073296;28;20040;-74
2024/01/25 12:07:20;;;;;;;45.58;9.10;;;8.10;99.90;;;;;;5073295;28;20093;-74
2024/01/25 12:10:01;;;;;;;44.22;9.73;;;8.00;99.90;;;;;;5073567;28;20115;-74
2024/01/25 12:12:28;;;;;;;48.38;9.65;;;8.00;99.90;;;;;;5073191;28;20090;-74
2024/01/25 12:15:00;;;;;;;51.83;10.52;;;7.90;99.90;;;;;;5073035;28;20076;-73
2024/01/25 12:17:28;;;;;;;48.13;10.13;;;7.90;99.90;;;;;;5072993;28;20366;-73
2024/01/25 12:19:58;;;;;;;44.63;9.98;;;7.90;99.90;;;;;;5074219;28;20493;-73
2024/01/25 12:22:27;;;;;;;41.15;9.98;;;8.30;99.90;;;;;;5072895;28;20473;-73
2024/01/25 12:24:58;;;;;;;43.13;9.63;;;8.60;99.90;;;;;;5072745;28;20051;-73
2024/01/25 12:27:26;;;;;;;45.30;9.13;;;8.90;99.90;;;;;;5072741;28;20132;-73
2024/01/25 12:29:55;;;;;;;42.17;9.70;;;9.00;99.90;;;;;;5072760;28;20065;-73
2024/01/25 12:32:21;;;;;;;45.92;10.13;;;9.20;99.90;;;;;;5074186;28;20071;-73
2024/01/25 12:35:03;;;;;;;41.42;9.18;;;9.40;99.90;;;;;;5072503;28;20076;-73
2024/01/25 12:37:29;;;;;;;32.63;8.77;;;10.10;99.90;;;;;;5073883;28;20044;-74
2024/01/25 12:39:55;;;;;;;42.38;9.15;;;10.20;99.90;;;;;;5074123;28;20041;-74